Date,TemperatureHighF,TemperatureAvgF,TemperatureLowF,DewpointHighF,DewpointAvgF,DewpointLowF,HumidityHigh,HumidityAvg,HumidityLow,PressureMaxIn,PressureMinIn,WindSpeedMaxMPH,WindSpeedAvgMPH,GustSpeedMaxMPH,PrecipitationSumIn
2013-1-1,32,22,5,20,4,-14,77,48,28,29.81,29.54,17,3,17,0.04
2013-1-2,21,8,-4,0,-13,-22,49,38,32,29.99,29.78,17,2,17,0.00
2013-1-3,23,9,-2,-1,-13,-24,41,35,32,30.02,29.87,10,2,10,0.00
2013-1-4,34,17,-1,17,1,-19,66,49,40,29.87,29.66,13,2,13,0.00
2013-1-5,36,26,11,17,8,-2,71,47,33,30.19,29.66,22,3,22,0.00
2013-1-6,32,21,9,17,9,-4,71,60,48,30.16,29.87,6,0,6,0.00
2013-1-7,27,19,9,18,7,-1,77,58,41,30.34,29.90,10,2,10,0.00
2013-1-8,38,25,6,22,12,-3,84,58,40,30.28,30.14,17,2,17,0.04
2013-1-9,36,27,13,27,18,6,81,69,50,30.34,29.81,6,1,8,0.00
2013-1-10,45,35,24,26,20,11,80,57,35,30.46,29.81,26,4,26,0.00
2013-1-11,38,29,16,21,14,9,78,54,36,30.46,30.19,7,1,7,0.00
2013-1-12,40,36,33,38,33,21,96,86,58,30.22,30.05,6,1,6,0.04
2013-1-13,44,39,36,44,39,35,100,99,96,30.08,29.90,11,2,11,0.04
2013-1-14,57,43,35,56,35,17,100,77,40,30.16,29.78,13,3,13,0.00
2013-1-15,38,33,25,21,16,12,71,51,41,30.25,30.14,8,1,8,0.00
2013-1-16,30,29,28,26,20,12,87,72,48,30.19,29.72,8,1,8,0.00
2013-1-17,41,25,13,32,13,-7,91,63,36,30.08,29.69,14,2,14,0.16
2013-1-18,17,10,2,-7,-13,-21,39,34,28,30.34,30.05,12,2,12,0.00
2013-1-19,36,25,4,20,9,-21,73,50,29,30.28,29.81,15,2,15,0.00
2013-1-20,45,36,22,30,19,0,82,51,34,29.81,29.40,26,5,26,0.04
2013-1-21,26,19,12,0,-5,-8,40,34,26,29.99,29.78,16,3,16,0.00
2013-1-22,16,11,6,-3,-8,-12,43,41,40,29.96,29.72,16,3,16,0.08
2013-1-23,7,1,-5,-11,-16,-22,43,43,43,30.02,29.93,17,3,17,0.00
2013-1-24,12,2,-8,-6,-15,-25,43,43,43,30.05,29.84,20,4,20,0.00
2013-1-25,19,10,2,-4,-11,-15,43,38,30,30.11,29.99,17,4,17,0.00
2013-1-26,24,13,4,-4,-12,-18,40,31,27,30.05,29.93,12,3,12,0.00
2013-1-27,25,14,6,-1,-10,-18,39,31,29,30.34,30.02,15,3,15,0.00
2013-1-28,28,18,6,14,-2,-16,75,42,26,30.34,30.02,10,1,10,0.00
2013-1-29,36,24,10,26,14,3,77,65,47,30.14,29.99,7,1,7,0.04
2013-1-30,51,42,31,51,41,25,100,96,77,30.11,29.37,23,5,23,0.43
2013-1-31,57,53,31,56,50,7,100,92,35,29.37,28.81,32,10,32,0.43
2013-2-1,31,24,14,7,0,-6,40,36,29,29.96,29.34,17,4,17,0.39
2013-2-2,27,19,9,6,-2,-11,50,40,29,30.11,29.96,13,2,13,0.39
2013-2-3,29,24,18,10,7,5,66,49,38,29.99,29.63,12,3,12,0.39
2013-2-4,29,22,14,6,3,-11,61,45,28,29.78,29.57,20,4,20,0.00
2013-2-5,25,16,6,-4,-10,-17,40,30,26,29.96,29.78,13,2,13,0.00
2013-2-6,36,22,12,16,2,-12,50,42,27,30.19,29.84,11,2,15,0.00
2013-2-7,20,13,6,-8,-13,-19,32,29,25,30.52,30.19,15,3,15,0.00
2013-2-8,13,9,7,-14,-18,-20,27,27,27,30.49,29.87,20,4,20,0.00
2013-2-9,18,13,9,8,-7,-18,76,43,27,30.02,29.63,29,8,29,0.00
2013-2-10,36,20,5,9,0,-10,57,43,27,30.28,30.02,13,2,13,0.00
2013-2-11,36,21,4,34,13,-8,95,72,53,30.25,29.49,6,0,6,0.04
2013-2-12,43,34,28,37,28,21,99,79,52,29.69,29.46,15,1,15,0.12
2013-2-13,46,37,31,23,18,15,65,48,33,29.75,29.66,13,2,13,0.00
2013-2-14,42,32,21,19,15,11,68,50,33,29.93,29.63,13,1,13,0.00
2013-2-15,45,32,20,30,21,13,86,66,43,29.93,29.81,16,2,16,0.00
2013-2-16,36,32,27,32,25,6,93,75,39,29.90,29.69,9,1,9,0.00
2013-2-17,27,21,17,13,5,-3,71,50,38,29.69,29.13,22,2,22,0.04
2013-2-18,30,20,11,5,-3,-8,41,36,30,29.93,29.37,27,7,27,0.00
2013-2-19,43,30,15,42,10,-7,97,46,23,30.02,29.52,13,3,13,0.98
2013-2-20,43,35,27,43,22,9,98,63,39,29.54,29.34,20,4,20,0.16
2013-2-21,32,27,20,18,9,1,58,47,37,30.08,29.54,17,4,17,0.00
2013-2-22,41,31,24,16,14,12,67,49,35,30.31,30.08,14,3,14,0.00
2013-2-23,37,30,22,30,23,13,91,75,57,30.28,29.96,11,1,11,0.00
2013-2-24,31,30,27,29,27,24,92,90,86,29.96,29.75,8,0,8,0.00
2013-2-25,42,31,22,26,22,17,87,69,44,30.19,29.84,10,1,10,0.28
2013-2-26,46,35,26,36,24,19,95,67,37,30.31,30.19,9,1,9,0.00
2013-2-27,39,30,25,31,24,20,93,77,47,30.19,29.66,20,3,20,0.00
2013-2-28,42,37,32,42,36,28,100,98,86,29.66,29.49,14,3,14,0.71
2013-3-1,36,33,31,30,27,23,90,80,59,29.60,29.49,12,1,12,0.00
2013-3-2,42,34,30,32,28,21,93,81,46,29.60,29.54,11,1,11,0.12
2013-3-3,42,36,33,37,29,21,99,78,59,29.57,29.46,9,1,9,0.31
2013-3-4,34,32,31,28,21,16,83,63,47,29.63,29.46,17,3,17,0.00
2013-3-5,47,38,32,33,28,25,92,70,44,30.08,29.63,15,4,15,0.08
2013-3-6,39,35,32,32,24,17,92,65,47,30.22,30.08,17,5,17,0.04
2013-3-7,37,34,32,18,17,16,55,49,44,30.16,30.05,20,6,20,0.00
2013-3-8,48,37,30,19,16,14,59,43,32,30.16,30.02,22,7,22,0.00
2013-3-9,49,36,26,21,16,13,62,45,32,30.31,30.14,17,4,17,0.00
2013-3-10,47,33,21,24,20,14,82,59,35,30.37,30.25,11,2,11,0.00
2013-3-11,45,39,34,37,29,24,87,69,47,30.25,30.11,17,4,17,0.00
2013-3-12,50,46,40,50,43,37,98,89,71,30.11,29.69,17,4,17,1.18
2013-3-13,50,43,31,49,35,20,100,76,45,29.69,29.60,13,2,13,0.04
2013-3-14,42,30,22,30,18,0,88,62,34,29.69,29.57,15,1,15,0.00
2013-3-15,36,26,16,9,4,-3,55,38,27,29.75,29.54,13,3,13,0.00
2013-3-16,37,28,21,16,8,1,75,44,27,29.87,29.57,13,2,13,0.00
2013-3-17,33,23,14,10,0,-11,66,37,25,30.25,29.84,20,3,20,0.00
2013-3-18,37,24,10,11,-1,-13,50,33,24,30.37,30.22,14,2,14,0.00
2013-3-19,32,27,23,23,18,11,84,69,47,30.22,29.66,18,4,18,0.00
2013-3-20,37,28,17,19,16,11,84,63,38,29.66,29.54,15,3,15,0.04
2013-3-21,44,31,19,19,12,8,74,49,25,29.69,29.54,11,2,11,0.20
2013-3-22,42,30,19,15,11,7,71,46,28,29.60,29.52,12,2,14,0.00
2013-3-23,44,33,22,17,13,7,56,44,33,29.57,29.43,24,5,24,0.00
2013-3-24,48,37,28,20,17,13,62,44,33,29.72,29.57,15,3,15,0.00
2013-3-25,45,35,23,26,20,16,84,54,38,29.75,29.54,14,3,14,0.00
2013-3-26,50,38,32,22,18,15,54,45,32,29.66,29.51,15,3,15,0.00
2013-3-27,46,36,27,34,26,17,91,67,43,29.81,29.63,12,2,12,0.12
2013-3-28,51,40,33,38,28,22,95,66,33,29.93,29.81,12,1,12,0.08
2013-3-29,58,39,32,34,28,20,81,66,30,29.96,29.90,17,1,17,0.00
2013-3-30,57,42,28,33,19,6,83,45,20,30.05,29.93,13,2,13,0.00
2013-3-31,55,41,24,30,19,10,65,43,23,30.08,29.81,18,2,18,0.00
2013-4-1,55,42,31,40,34,14,96,75,46,29.81,29.46,17,3,17,0.94
2013-4-2,38,32,24,15,9,4,57,39,29,29.75,29.60,19,4,19,0.00
2013-4-3,43,34,28,11,6,2,49,31,23,29.99,29.72,25,6,25,0.00
2013-4-4,53,39,30,22,9,3,56,30,16,30.14,29.90,15,5,16,0.00
2013-4-5,59,44,34,23,17,8,59,36,19,29.90,29.60,16,4,16,0.00
2013-4-6,41,33,26,12,1,-7,36,26,18,30.28,29.75,22,4,22,0.00
2013-4-7,47,37,24,30,15,0,59,40,27,30.28,29.90,23,4,23,0.00
2013-4-8,60,48,35,37,27,20,82,49,25,30.11,29.81,14,4,14,0.00
2013-4-9,46,42,39,41,35,23,87,75,47,30.08,29.87,10,2,10,0.24
2013-4-10,58,46,39,48,36,29,94,73,37,29.93,29.84,8,1,8,0.24
2013-4-11,54,45,37,39,20,2,90,43,18,30.14,29.81,17,3,17,0.00
2013-4-12,39,35,33,31,16,3,91,51,24,30.22,29.87,12,2,12,0.28
2013-4-13,46,38,33,34,30,26,93,77,47,29.87,29.75,8,1,8,0.24
2013-4-14,53,43,35,39,31,24,88,67,36,30.14,29.84,8,1,8,0.00
2013-4-15,59,43,29,35,26,22,88,55,25,30.37,30.14,13,2,13,0.24
2013-4-16,55,48,40,41,32,25,84,57,33,30.37,29.90,26,6,26,0.00
2013-4-17,61,52,38,44,23,10,82,36,19,30.31,29.90,17,3,17,0.00
2013-4-18,52,41,32,28,18,13,50,39,24,30.43,30.11,22,2,22,0.00
2013-4-19,70,57,48,56,45,28,92,67,42,30.11,29.60,24,7,24,0.00
2013-4-20,60,53,42,58,36,14,93,59,24,30.11,29.54,24,4,24,0.63
2013-4-21,52,42,30,16,12,6,42,30,19,30.67,30.11,15,3,15,0.00
2013-4-22,55,40,26,22,14,6,66,38,16,30.79,30.64,17,2,17,0.00
2013-4-23,49,39,28,37,28,20,83,67,41,30.64,30.16,11,3,11,0.00
2013-4-24,60,47,42,46,39,35,94,76,46,30.17,29.75,13,4,13,0.08
2013-4-25,63,52,39,50,34,14,90,57,18,30.25,29.72,14,4,14,0.04
2013-4-26,64,48,32,25,21,17,60,36,18,30.40,30.25,13,2,13,0.04
2013-4-27,65,48,32,36,26,22,83,47,21,30.40,30.25,13,2,13,0.04
2013-4-28,69,52,34,38,25,16,84,42,15,30.31,30.19,15,2,16,0.04
2013-4-29,66,51,35,38,29,23,80,46,20,30.25,30.19,15,2,15,0.00
2013-4-30,71,55,36,44,29,14,88,46,19,30.34,30.22,12,2,12,0.00
2013-5-1,74,51,34,35,25,18,76,42,13,30.43,30.34,12,1,12,0.00
2013-5-2,68,53,39,40,30,24,82,45,24,30.52,30.37,13,2,13,0.00
2013-5-3,69,50,35,36,31,27,82,52,25,30.52,30.34,10,2,10,0.00
2013-5-4,66,50,38,42,32,24,87,56,20,30.37,30.31,9,2,9,0.00
2013-5-5,67,56,41,42,29,25,88,40,24,30.28,30.22,14,4,14,0.00
2013-5-6,67,54,38,47,35,28,94,53,24,30.25,30.14,17,4,17,0.00
2013-5-7,75,58,46,52,43,32,95,65,22,30.16,30.08,17,3,17,0.00
2013-5-8,76,62,48,60,48,42,94,65,31,30.22,30.11,17,3,17,0.20
2013-5-9,63,57,54,58,53,51,93,86,72,30.14,29.90,9,1,9,1.38
2013-5-10,76,60,51,60,51,43,97,75,32,29.96,29.87,10,1,10,0.00
2013-5-11,63,57,52,58,53,48,94,87,70,29.93,29.66,15,3,15,0.59
2013-5-12,63,58,45,62,54,35,97,87,56,29.72,29.52,12,1,12,0.08
2013-5-13,59,50,37,38,26,20,88,43,24,29.99,29.72,17,4,17,0.00
2013-5-14,59,49,37,29,23,19,62,38,24,30.02,29.93,13,2,13,0.00
2013-5-15,65,50,34,47,29,16,88,51,15,29.99,29.66,17,3,18,0.35
2013-5-16,78,61,49,58,40,24,95,55,15,29.78,29.54,16,3,16,0.04
2013-5-17,64,55,43,39,31,25,69,42,25,30.19,29.78,15,3,15,0.00
2013-5-18,67,52,38,45,34,30,88,55,27,30.34,30.19,11,2,11,0.04
2013-5-19,68,54,43,46,40,36,87,63,32,30.37,30.22,9,2,9,0.04
2013-5-20,72,59,50,58,51,46,95,78,43,30.22,29.90,9,1,9,1.10
2013-5-21,57,53,49,52,49,45,90,87,82,30.08,29.96,9,1,9,1.22
2013-5-22,58,52,49,52,47,45,95,84,61,30.08,29.90,8,1,8,0.59
2013-5-23,65,57,49,60,52,46,95,84,63,29.96,29.78,16,2,16,0.08
2013-5-24,65,60,49,63,57,45,95,90,79,29.87,29.66,17,3,17,1.42
2013-5-25,50,48,46,46,45,42,93,89,84,29.84,29.69,17,5,17,0.98
2013-5-26,55,49,41,46,39,29,95,71,39,29.96,29.63,12,3,12,0.39
2013-5-27,68,53,37,44,30,19,89,49,17,30.16,29.96,17,2,17,0.39
2013-5-28,75,56,38,46,32,24,89,47,16,30.22,30.16,15,1,15,0.39
2013-5-29,57,53,46,54,49,34,94,86,60,30.22,29.99,7,0,7,0.39
2013-5-30,85,68,54,67,53,45,97,65,27,30.05,29.96,10,1,10,0.39
2013-5-31,92,75,58,66,55,50,93,55,25,30.05,29.90,15,2,15,0.39
2013-6-1,92,75,61,68,56,48,92,57,28,29.93,29.84,18,1,18,0.00
2013-6-2,86,74,66,65,58,50,87,60,36,29.84,29.72,15,3,23,0.08
2013-6-3,77,67,58,67,59,48,95,76,44,29.84,29.72,15,3,15,0.00
2013-6-4,66,59,50,53,38,29,88,49,26,30.05,29.78,15,3,15,0.00
2013-6-5,73,60,46,43,34,26,77,41,19,30.16,30.05,11,2,11,0.00
2013-6-6,69,57,56,46,38,31,69,48,25,30.19,30.14,8,2,8,0.00
2013-6-7,63,56,52,50,44,33,90,67,34,30.16,29.96,8,1,8,0.75
2013-6-8,68,59,53,56,52,46,95,80,48,29.99,29.66,17,2,17,1.73
2013-6-9,74,64,56,58,52,44,92,68,38,30.16,29.99,10,1,10,0.00
2013-6-10,74,62,51,59,47,40,93,63,31,30.22,30.05,12,1,12,0.00
2013-6-11,57,56,55,54,53,50,92,88,76,30.08,29.54,10,1,11,1.57
2013-6-12,60,58,55,57,53,46,95,85,63,29.78,29.52,15,2,15,0.63
2013-6-13,72,61,52,61,46,35,94,64,26,29.81,29.72,11,1,11,0.00
2013-6-14,76,64,53,56,46,35,92,57,24,29.75,29.66,8,1,8,0.00
2013-6-15,77,62,49,55,40,28,91,52,20,29.90,29.75,13,2,13,0.00
2013-6-16,78,63,48,52,44,37,80,53,26,29.90,29.72,13,1,13,0.00
2013-6-17,83,66,55,62,52,44,93,65,27,29.90,29.72,13,1,13,0.00
2013-6-18,69,62,55,57,47,38,92,61,35,29.99,29.87,8,0,8,0.00
2013-6-19,74,64,49,56,42,33,100,51,24,30.14,29.93,12,2,12,0.00
2013-6-20,78,63,47,54,42,36,94,52,24,30.25,30.14,14,2,14,0.00
2013-6-21,82,66,52,58,49,39,100,62,24,30.22,30.16,10,1,10,0.00
2013-6-22,82,68,58,64,57,52,97,71,38,30.22,30.14,6,0,6,0.00
2013-6-23,80,71,66,70,64,59,100,82,50,30.16,29.99,11,1,11,0.08
2013-6-24,89,77,66,74,63,55,100,68,32,29.99,29.87,13,2,13,0.00
2013-6-25,92,77,68,69,62,55,100,65,31,29.90,29.75,13,2,13,0.98
2013-6-26,78,68,61,74,65,60,100,92,59,29.93,29.75,10,1,10,2.09
2013-6-27,68,62,58,64,60,57,100,92,73,29.93,29.84,6,1,10,0.04
2013-6-28,67,62,58,67,62,58,100,100,100,29.87,29.57,11,2,11,1.54
2013-6-29,72,68,63,71,65,60,100,92,76,29.72,29.57,16,1,16,0.04
2013-6-30,85,72,63,70,62,52,97,76,32,29.96,29.69,13,2,13,0.16
2013-7-1,76,71,64,68,66,62,96,82,69,30.14,29.96,5,0,5,0.04
2013-7-2,71,63,59,69,60,56,95,91,87,30.25,30.14,10,1,10,0.83
2013-7-3,82,68,59,67,60,55,96,78,44,30.22,30.14,10,1,10,0.79
2013-7-4,90,79,66,77,65,58,96,67,35,30.19,30.11,10,1,10,0.79
2013-7-5,91,79,69,78,67,57,96,72,35,30.16,30.05,10,1,10,0.28
2013-7-6,89,78,67,78,64,54,96,65,33,30.08,29.99,10,1,10,0.04
2013-7-7,88,76,65,65,59,50,85,58,29,30.02,29.96,11,1,11,0.04
2013-7-8,73,69,62,68,62,52,91,78,50,30.14,29.96,9,1,9,0.20
2013-7-9,78,68,64,66,61,52,95,81,41,30.17,30.11,9,0,9,0.20
2013-7-10,71,66,62,66,60,56,95,82,60,30.14,29.81,6,1,8,0.20
2013-7-11,79,71,65,72,66,60,97,86,55,30.02,29.78,6,0,6,0.00
2013-7-12,80,69,60,60,51,42,87,56,29,30.25,30.02,10,1,10,0.00
2013-7-13,84,71,58,67,52,44,95,57,29,30.34,30.25,9,1,9,0.00
2013-7-14,90,75,62,68,63,54,96,69,39,30.34,30.22,8,1,8,0.00
2013-7-15,92,80,66,78,67,63,100,69,41,30.22,30.11,9,1,9,0.00
2013-7-16,91,79,68,77,68,64,100,74,42,30.22,30.14,9,1,9,0.00
2013-7-17,86,74,66,72,67,64,100,81,57,30.22,30.02,13,1,13,0.20
2013-7-18,88,75,68,77,67,57,100,79,48,30.08,29.99,10,1,10,0.00
2013-7-19,92,80,69,77,70,62,100,75,47,30.02,29.69,17,3,17,0.00
2013-7-20,91,78,66,73,68,62,100,72,44,29.84,29.66,13,2,13,0.16
2013-7-21,78,69,60,67,59,53,100,74,49,30.02,29.84,10,1,10,0.00
2013-7-22,74,66,59,66,60,52,100,80,52,30.03,29.91,6,1,6,0.00
2013-7-23,69,64,59,69,64,59,100,100,98,29.91,29.50,6,0,6,1.54
2013-7-24,84,68,56,74,63,48,100,84,55,29.94,29.53,9,0,9,0.16
2013-7-25,74,63,52,64,54,46,100,75,49,30.09,29.94,10,1,10,0.20
2013-7-26,70,64,62,67,63,60,100,97,78,30.06,29.85,17,2,17,0.24
2013-7-27,84,72,62,70,62,58,100,74,46,30.00,29.85,10,1,10,0.20
2013-7-28,75,67,62,67,62,57,100,87,56,30.00,29.97,10,1,10,0.00
2013-7-29,78,68,62,70,65,62,100,91,61,30.03,29.97,9,0,9,0.51
2013-7-30,79,68,59,72,60,52,100,80,43,30.03,29.97,8,1,11,0.00
2013-7-31,82,69,56,68,57,52,100,70,39,30.09,30.00,13,0,13,0.00
2013-8-1,82,68,57,69,60,54,100,78,46,30.03,29.85,13,1,13,0.00
2013-8-2,78,67,61,72,64,58,100,92,60,29.85,29.74,8,1,14,1.42
2013-8-3,79,65,59,72,61,55,100,89,54,29.80,29.68,13,0,13,1.42
2013-8-4,79,66,55,68,58,54,100,81,46,29.80,29.71,14,1,14,0.39
2013-8-5,72,61,51,61,51,47,100,74,47,29.97,29.77,11,1,12,0.39
2013-8-6,80,68,51,57,52,47,91,58,39,30.12,29.97,12,2,12,0.00
2013-8-7,80,66,50,64,55,50,100,73,40,30.15,30.09,13,2,13,0.00
2013-8-8,74,66,61,68,64,58,100,94,76,30.09,29.97,9,2,9,0.24
2013-8-9,72,68,66,72,68,66,100,100,100,30.00,29.71,17,2,17,4.92
2013-8-10,80,69,56,75,59,48,100,74,40,29.97,29.71,14,2,14,0.20
2013-8-11,78,63,51,64,54,51,100,75,42,30.00,29.91,8,1,10,0.20
2013-8-12,82,66,55,66,57,54,100,80,39,29.97,29.85,6,0,9,0.00
2013-8-13,78,66,57,69,61,57,100,85,59,29.88,29.68,14,1,14,0.00
2013-8-14,78,66,57,65,57,44,100,77,44,29.83,29.59,12,2,12,0.00
2013-8-15,76,70,54,55,51,44,95,53,40,30.03,29.83,10,3,10,0.00
2013-8-16,82,65,52,65,54,51,100,74,39,30.15,30.03,10,1,10,0.00
2013-8-17,79,66,55,67,55,49,100,72,38,30.24,30.15,10,1,10,0.00
2013-8-18,78,65,52,66,57,52,100,79,46,30.24,30.00,8,1,8,0.00
2013-8-19,84,72,57,70,61,57,100,73,45,30.00,29.85,10,2,10,0.00
2013-8-20,80,67,61,71,61,56,100,83,50,30.03,29.91,9,1,9,0.00
2013-8-21,88,72,60,72,62,60,100,75,41,30.09,29.97,11,2,11,0.00
2013-8-22,89,74,61,71,63,60,100,72,41,29.97,29.74,13,2,13,0.00
2013-8-23,78,69,56,68,54,45,96,62,38,30.09,29.74,12,2,12,0.00
2013-8-24,78,63,49,58,49,45,100,67,35,30.27,30.09,8,1,8,0.00
2013-8-25,81,65,50,64,52,48,100,69,36,30.30,30.09,10,1,10,0.00
2013-8-26,76,67,59,68,63,57,100,89,58,30.09,29.83,9,1,9,0.04
2013-8-27,85,73,61,74,63,60,100,75,46,29.88,29.80,8,1,8,0.00
2013-8-28,87,72,62,70,63,59,100,78,44,29.97,29.85,9,1,9,0.39
2013-8-29,68,63,55,66,59,53,100,88,64,30.09,29.97,11,1,11,0.00
2013-8-30,79,67,54,65,60,54,100,81,53,29.97,29.74,10,1,10,0.00
2013-8-31,84,72,64,72,66,62,100,86,50,29.80,29.74,11,0,11,0.63
2013-9-1,85,74,68,78,68,61,100,84,46,29.91,29.74,8,1,8,0.20
2013-9-2,70,66,63,70,66,63,100,100,97,29.88,29.71,13,1,13,4.57
2013-9-3,80,70,64,74,67,64,100,92,60,29.74,29.65,10,1,11,0.04
2013-9-4,80,67,58,70,58,51,100,77,38,29.85,29.71,8,1,11,0.00
2013-9-5,68,58,47,61,51,40,100,79,40,30.09,29.83,8,1,8,0.55
2013-9-6,68,55,42,56,44,39,100,73,38,30.15,30.00,10,1,10,0.12
2013-9-7,77,62,48,61,52,48,100,76,38,30.00,29.74,11,1,11,0.00
2013-9-8,69,58,44,61,49,35,100,75,39,30.00,29.65,9,1,14,0.28
2013-9-9,67,55,40,53,44,39,100,71,38,30.15,30.00,14,2,14,0.00
2013-9-10,68,61,51,64,55,47,100,82,59,30.06,29.97,12,2,12,0.00
2013-9-11,92,72,63,77,67,62,100,87,49,30.00,29.85,23,1,23,0.35
2013-9-12,77,69,66,74,68,65,100,96,68,29.97,29.62,13,1,13,1.50
2013-9-13,70,65,58,70,65,58,100,100,93,29.68,29.56,13,1,13,1.18
2013-9-14,71,60,52,66,54,49,100,82,46,29.97,29.68,10,1,10,0.04
2013-9-15,69,57,46,60,49,44,100,77,42,30.06,29.97,11,1,11,0.00
2013-9-16,64,54,42,62,49,30,100,84,57,30.21,29.91,8,0,10,0.04
2013-9-17,66,50,36,45,39,30,99,68,38,30.33,30.21,10,1,10,0.00
2013-9-18,74,56,42,60,44,41,100,71,36,30.24,30.06,10,1,10,0.00
2013-9-19,78,67,49,64,48,45,100,54,35,30.06,29.97,10,1,10,0.00
2013-9-20,80,58,45,64,49,45,100,76,36,30.06,29.97,8,1,8,0.00
2013-9-21,69,61,54,61,56,50,100,85,52,30.00,29.74,17,3,17,0.00
2013-9-22,72,64,50,66,57,40,100,80,52,29.74,29.56,17,3,17,1.34
2013-9-23,59,50,44,42,37,34,88,62,43,29.88,29.71,14,2,14,0.00
2013-9-24,57,49,43,42,38,34,91,65,47,29.85,29.77,11,1,11,0.00
2013-9-25,65,54,43,52,42,38,100,68,41,29.91,29.80,14,2,14,0.00
2013-9-26,66,56,44,50,44,40,98,67,44,30.09,29.91,13,2,13,0.00
2013-9-27,72,58,50,51,48,44,95,70,39,30.21,30.09,10,1,10,0.00
2013-9-28,74,56,46,62,48,44,100,81,36,30.30,30.21,8,1,8,0.00
2013-9-29,71,60,47,64,46,41,100,64,37,30.18,30.09,8,1,8,0.00
2013-9-30,69,53,45,59,46,36,100,81,32,30.09,29.91,5,0,5,0.00
2013-10-1,76,53,42,61,46,42,100,82,35,29.91,29.77,12,1,12,0.00
2013-10-2,80,63,50,66,51,43,100,70,38,29.85,29.68,14,2,14,0.00
2013-10-3,75,60,47,56,46,42,98,64,33,30.00,29.85,12,1,12,0.00
2013-10-4,72,58,45,59,46,42,100,71,37,30.03,29.97,8,0,8,0.00
2013-10-5,66,56,48,46,42,39,91,60,40,30.09,30.03,8,0,8,0.00
2013-10-6,60,52,47,49,40,32,98,66,40,30.24,30.09,8,1,8,0.20
2013-10-7,69,59,49,67,59,49,100,98,87,30.15,29.74,17,3,22,0.75
2013-10-8,63,54,39,63,44,32,100,72,39,30.33,29.77,15,2,15,0.04
2013-10-9,65,48,35,50,37,33,100,71,35,30.42,30.30,9,0,9,0.04
2013-10-10,68,49,36,53,40,35,100,77,38,30.30,30.12,8,0,8,0.00
2013-10-11,73,54,44,57,46,43,100,79,37,30.12,30.06,7,0,7,0.00
2013-10-12,60,53,47,56,48,43,100,84,55,30.36,30.12,8,0,8,0.00
2013-10-13,59,52,45,49,44,40,91,75,52,30.39,30.30,6,0,6,0.00
2013-10-14,66,51,40,54,43,39,100,77,41,30.33,30.18,10,1,10,0.00
2013-10-15,70,56,47,61,48,44,100,77,41,30.24,30.15,7,1,7,0.00
2013-10-16,64,57,53,55,50,42,98,79,46,30.15,29.85,8,1,8,0.00
2013-10-17,72,59,51,55,51,45,96,78,39,29.85,29.68,8,1,9,0.00
2013-10-18,68,56,45,62,49,39,100,80,39,29.77,29.53,10,1,13,0.20
2013-10-19,66,51,40,47,41,37,99,73,35,29.85,29.71,11,1,11,0.00
2013-10-20,64,53,41,55,39,24,100,62,31,29.88,29.59,15,2,15,0.00
2013-10-21,63,48,34,46,35,28,95,64,33,30.00,29.88,10,1,10,0.00
2013-10-22,63,54,40,52,45,34,91,72,45,29.91,29.80,17,3,17,0.00
2013-10-23,56,44,34,48,34,31,100,72,40,29.56,0.00,11,1,11,0.00
2013-10-24,52,43,32,36,27,22,87,55,33,29.74,29.53,8,2,11,0.00
2013-10-25,52,39,31,37,25,20,90,59,39,30.00,29.74,12,2,12,0.00
2013-10-26,50,40,28,36,28,21,84,64,42,30.03,29.77,13,2,13,0.04
2013-10-27,58,45,35,41,31,23,89,60,39,29.91,29.71,15,2,15,0.00
2013-10-28,56,40,30,34,26,17,86,59,41,30.27,29.91,15,2,15,0.00
2013-10-29,49,33,23,32,19,13,89,58,31,30.36,30.27,6,0,8,0.00
2013-10-30,49,34,25,30,23,19,91,67,34,30.27,30.09,9,1,9,0.00
2013-10-31,58,38,26,58,35,20,100,87,64,30.15,29.50,17,1,17,0.35
2013-11-1,66,59,52,61,55,46,100,87,59,29.59,29.09,28,6,28,0.47
2013-11-2,66,52,39,55,42,33,100,71,38,29.82,29.59,12,1,12,0.04
2013-11-3,44,38,27,35,21,11,84,50,35,30.44,29.82,15,4,15,0.04
2013-11-4,42,31,23,17,13,10,67,49,33,30.74,30.44,10,1,12,0.00
2013-11-5,49,34,22,30,22,14,88,66,42,30.74,30.50,13,1,13,0.00
2013-11-6,56,43,30,45,36,28,98,78,50,30.50,30.00,15,3,15,0.00
2013-11-7,58,52,39,54,44,20,90,75,45,30.00,29.67,18,5,18,0.04
2013-11-8,47,39,31,24,20,17,61,46,37,30.00,29.79,17,3,17,0.04
2013-11-9,44,36,28,21,17,13,65,46,35,30.12,29.97,19,3,19,0.00
2013-11-10,42,36,32,40,31,21,97,82,63,30.12,29.73,6,1,6,0.04
2013-11-11,47,40,35,38,27,22,100,65,42,30.03,29.76,10,2,13,0.00
2013-11-12,41,34,25,26,16,8,57,48,40,30.12,29.82,11,4,16,0.00
2013-11-13,35,28,22,11,8,2,51,43,35,30.24,30.09,14,3,14,0.00
2013-11-14,50,35,26,24,16,8,57,45,36,30.09,30.00,12,3,12,0.00
2013-11-22,35,33,32,34,32,30,96,93,90,29.94,29.79,6,0,6,0.00
2013-11-23,41,35,24,35,18,9,99,54,36,29.82,29.67,23,4,23,0.04
2013-11-24,28,22,18,15,1,-3,58,40,36,30.00,29.67,26,7,26,0.04
2013-11-25,29,22,14,6,0,-5,41,38,35,30.32,30.00,20,4,20,0.04
2013-11-26,33,30,26,29,19,6,90,66,38,30.29,30.18,11,2,11,0.00
2013-11-27,59,47,31,59,47,29,100,99,90,30.18,29.20,27,4,27,3.46
2013-11-28,37,27,19,36,9,0,94,47,35,30.38,29.29,15,4,18,0.00
2013-11-29,28,19,13,7,3,-1,63,49,36,30.71,30.35,10,1,13,0.00
2013-11-30,30,20,10,14,5,-1,76,53,35,30.80,30.41,9,2,10,0.00
2013-12-1,33,31,27,33,25,14,100,79,58,30.41,30.09,6,1,7,0.20
2013-12-2,34,33,33,34,33,33,100,100,100,30.09,29.94,7,0,7,0.55
2013-12-3,40,35,29,40,35,29,100,100,100,29.94,29.85,8,1,8,0.31
2013-12-4,42,31,26,38,27,22,100,85,49,30.21,29.85,13,1,13,0.31
2013-12-5,35,30,22,34,28,20,100,94,88,30.27,29.91,5,0,5,0.08
2013-12-6,42,37,34,42,35,20,100,94,55,30.12,29.85,6,1,10,0.28
2013-12-7,38,32,23,24,12,2,71,45,35,30.41,30.06,15,3,15,0.28
2013-12-8,28,24,19,10,4,0,58,44,36,30.56,30.38,14,2,14,0.28
2013-12-9,25,23,21,19,12,5,82,65,47,30.53,29.82,9,3,9,0.28
2013-12-10,34,26,19,29,19,7,88,76,57,29.88,29.70,10,1,10,0.28
2013-12-11,30,20,12,13,8,5,74,60,40,30.12,29.88,14,2,14,0.00
2013-12-12,18,12,6,5,-6,-15,59,45,35,30.24,29.97,13,2,13,0.00
2013-12-13,26,13,2,6,-8,-19,64,38,35,30.38,29.85,21,3,21,0.00
2013-12-14,13,6,-3,-8,-15,-22,37,37,37,30.62,30.38,9,2,9,0.00
2013-12-15,17,10,6,7,-6,-14,67,48,37,30.38,29.44,20,4,20,0.00
2013-12-16,24,10,-3,10,-6,-19,73,51,37,30.18,29.65,17,2,17,0.00
2013-12-17,12,4,-12,-8,-15,-30,39,39,39,30.29,30.03,8,1,8,0.00
2013-12-18,29,18,10,15,6,-10,75,61,39,30.03,29.82,11,2,11,0.00
2013-12-19,32,25,14,21,18,7,83,73,58,30.06,29.88,9,1,9,0.00
2013-12-20,37,31,25,31,26,20,95,81,65,30.12,29.91,6,0,6,0.00
2013-12-21,32,28,24,30,26,21,95,91,86,29.94,29.82,8,2,8,0.00
2013-12-22,32,28,25,32,26,23,98,93,90,30.09,29.88,11,0,11,0.04
2013-12-23,32,29,26,32,28,24,100,97,95,30.12,29.97,0,0,0,0.00
2013-12-26,22,17,9,16,11,3,79,77,66,30.38,30.09,0,0,0,0.00
2013-12-27,32,20,9,25,15,3,86,78,70,30.18,30.09,0,0,0,0.00
2013-12-28,34,25,12,30,21,8,94,87,81,30.15,29.94,0,0,0,0.00
2013-12-29,34,25,18,34,23,15,98,93,83,30.03,29.56,0,0,0,0.00
2013-12-30,32,18,1,27,10,-10,90,72,57,30.18,29.53,0,0,0,0.00
2013-12-31,10,0,-7,-2,-11,-18,59,59,59,30.18,30.03,0,0,0,0.00
2014-1-1,20,3,-14,8,-8,-24,60,59,51,30.41,30.09,0,0,0,0.00
2014-1-2,3,-4,-9,-8,-15,-19,60,60,60,30.44,30.00,0,0,0,0.00